sensor_id;sensor_type;location;lat;lon;timestamp;P1;durP1;ratioP1;P2;durP2;ratioP2
21190;SDS011;10753;52.304;20.990;2022-08-21T00:00:34;7.72;;;5.22;;
21190;SDS011;10753;52.304;20.990;2022-08-21T00:03:03;7.45;;;5.70;;
21190;SDS011;10753;52.304;20.990;2022-08-21T00:05:31;8.32;;;5.57;;
21190;SDS011;10753;52.304;20.990;2022-08-21T00:08:00;8.15;;;5.18;;
21190;SDS011;10753;52.304;20.990;2022-08-21T00:10:26;6.75;;;5.18;;
21190;SDS011;10753;52.304;20.990;2022-08-21T00:12:52;6.43;;;5.70;;
21190;SDS011;10753;52.304;20.990;2022-08-21T00:15:19;6.25;;;5.47;;
21190;SDS011;10753;52.304;20.990;2022-08-21T00:17:53;8.48;;;5.32;;
21190;SDS011;10753;52.304;20.990;2022-08-21T00:20:20;7.47;;;5.00;;
21190;SDS011;10753;52.304;20.990;2022-08-21T00:22:46;13.43;;;5.30;;
21190;SDS011;10753;52.304;20.990;2022-08-21T00:25:13;7.25;;;5.32;;
21190;SDS011;10753;52.304;20.990;2022-08-21T00:27:40;9.70;;;5.43;;
21190;SDS011;10753;52.304;20.990;2022-08-21T00:30:07;5.80;;;5.05;;
21190;SDS011;10753;52.304;20.990;2022-08-21T00:32:36;7.97;;;5.30;;
21190;SDS011;10753;52.304;20.990;2022-08-21T00:35:03;11.70;;;5.88;;
21190;SDS011;10753;52.304;20.990;2022-08-21T00:37:34;7.80;;;5.93;;
21190;SDS011;10753;52.304;20.990;2022-08-21T00:39:59;9.77;;;6.00;;
21190;SDS011;10753;52.304;20.990;2022-08-21T00:42:26;7.72;;;5.90;;
21190;SDS011;10753;52.304;20.990;2022-08-21T00:44:53;9.38;;;5.40;;
21190;SDS011;10753;52.304;20.990;2022-08-21T00:47:19;8.48;;;5.15;;
21190;SDS011;10753;52.304;20.990;2022-08-21T00:49:45;8.68;;;5.55;;
21190;SDS011;10753;52.304;20.990;2022-08-21T00:52:13;9.73;;;5.60;;
21190;SDS011;10753;52.304;20.990;2022-08-21T00:54:42;9.52;;;5.82;;
21190;SDS011;10753;52.304;20.990;2022-08-21T00:57:10;8.40;;;5.63;;
21190;SDS011;10753;52.304;20.990;2022-08-21T00:59:40;7.22;;;5.25;;
21190;SDS011;10753;52.304;20.990;2022-08-21T01:02:09;6.82;;;5.38;;
21190;SDS011;10753;52.304;20.990;2022-08-21T01:04:35;7.18;;;5.40;;
21190;SDS011;10753;52.304;20.990;2022-08-21T01:07:01;8.13;;;5.55;;
21190;SDS011;10753;52.304;20.990;2022-08-21T01:09:27;7.32;;;5.78;;
21190;SDS011;10753;52.304;20.990;2022-08-21T01:11:53;7.68;;;5.30;;
21190;SDS011;10753;52.304;20.990;2022-08-21T01:14:19;8.68;;;5.43;;
21190;SDS011;10753;52.304;20.990;2022-08-21T01:16:47;9.70;;;6.15;;
21190;SDS011;10753;52.304;20.990;2022-08-21T01:19:15;7.97;;;5.45;;
21190;SDS011;10753;52.304;20.990;2022-08-21T01:21:43;8.40;;;6.13;;
21190;SDS011;10753;52.304;20.990;2022-08-21T01:24:09;9.27;;;5.97;;
21190;SDS011;10753;52.304;20.990;2022-08-21T01:26:35;6.38;;;5.43;;
21190;SDS011;10753;52.304;20.990;2022-08-21T01:29:03;7.90;;;6.05;;
21190;SDS011;10753;52.304;20.990;2022-08-21T01:31:45;7.03;;;6.15;;
21190;SDS011;10753;52.304;20.990;2022-08-21T01:34:11;7.10;;;6.38;;
21190;SDS011;10753;52.304;20.990;2022-08-21T01:36:37;9.40;;;6.20;;
21190;SDS011;10753;52.304;20.990;2022-08-21T01:39:03;12.32;;;6.80;;
21190;SDS011;10753;52.304;20.990;2022-08-21T01:41:30;10.82;;;6.85;;
21190;SDS011;10753;52.304;20.990;2022-08-21T01:43:55;7.57;;;6.75;;
21190;SDS011;10753;52.304;20.990;2022-08-21T01:46:21;12.27;;;7.45;;
21190;SDS011;10753;52.304;20.990;2022-08-21T01:48:47;7.78;;;6.97;;
21190;SDS011;10753;52.304;20.990;2022-08-21T01:51:13;7.68;;;6.75;;
21190;SDS011;10753;52.304;20.990;2022-08-21T01:53:38;8.30;;;7.10;;
21190;SDS011;10753;52.304;20.990;2022-08-21T01:56:06;9.25;;;6.82;;
21190;SDS011;10753;52.304;20.990;2022-08-21T01:58:34;9.98;;;7.28;;
21190;SDS011;10753;52.304;20.990;2022-08-21T02:01:00;9.35;;;7.13;;
21190;SDS011;10753;52.304;20.990;2022-08-21T02:03:29;8.50;;;7.32;;
21190;SDS011;10753;52.304;20.990;2022-08-21T02:05:55;10.18;;;7.32;;
21190;SDS011;10753;52.304;20.990;2022-08-21T02:08:21;9.23;;;7.15;;
21190;SDS011;10753;52.304;20.990;2022-08-21T02:10:48;8.60;;;7.32;;
21190;SDS011;10753;52.304;20.990;2022-08-21T02:13:15;10.85;;;7.57;;
21190;SDS011;10753;52.304;20.990;2022-08-21T02:15:41;11.18;;;7.60;;
21190;SDS011;10753;52.304;20.990;2022-08-21T02:18:07;8.98;;;7.55;;
21190;SDS011;10753;52.304;20.990;2022-08-21T02:20:35;8.50;;;7.30;;
21190;SDS011;10753;52.304;20.990;2022-08-21T02:23:02;7.30;;;6.60;;
21190;SDS011;10753;52.304;20.990;2022-08-21T02:25:28;8.77;;;7.25;;
21190;SDS011;10753;52.304;20.990;2022-08-21T02:27:55;9.65;;;6.93;;
21190;SDS011;10753;52.304;20.990;2022-08-21T02:30:29;11.32;;;7.32;;
21190;SDS011;10753;52.304;20.990;2022-08-21T02:32:56;8.15;;;6.50;;
21190;SDS011;10753;52.304;20.990;2022-08-21T02:35:22;9.18;;;7.00;;
21190;SDS011;10753;52.304;20.990;2022-08-21T02:37:52;12.23;;;7.55;;
21190;SDS011;10753;52.304;20.990;2022-08-21T02:40:21;9.32;;;7.28;;
21190;SDS011;10753;52.304;20.990;2022-08-21T02:42:48;9.27;;;7.10;;
21190;SDS011;10753;52.304;20.990;2022-08-21T02:45:14;8.15;;;7.32;;
21190;SDS011;10753;52.304;20.990;2022-08-21T02:47:40;8.35;;;7.32;;
21190;SDS011;10753;52.304;20.990;2022-08-21T02:50:12;10.85;;;7.65;;
21190;SDS011;10753;52.304;20.990;2022-08-21T02:52:38;9.57;;;6.93;;
21190;SDS011;10753;52.304;20.990;2022-08-21T02:55:03;10.25;;;7.82;;
21190;SDS011;10753;52.304;20.990;2022-08-21T02:57:29;10.05;;;7.15;;
21190;SDS011;10753;52.304;20.990;2022-08-21T02:59:56;10.85;;;7.38;;
21190;SDS011;10753;52.304;20.990;2022-08-21T03:02:22;9.77;;;7.20;;
21190;SDS011;10753;52.304;20.990;2022-08-21T03:04:47;10.60;;;8.10;;
21190;SDS011;10753;52.304;20.990;2022-08-21T03:07:13;11.25;;;7.80;;
21190;SDS011;10753;52.304;20.990;2022-08-21T03:09:40;12.93;;;8.35;;
21190;SDS011;10753;52.304;20.990;2022-08-21T03:12:05;10.93;;;7.72;;
21190;SDS011;10753;52.304;20.990;2022-08-21T03:14:31;8.32;;;7.28;;
21190;SDS011;10753;52.304;20.990;2022-08-21T03:16:57;9.27;;;7.65;;
21190;SDS011;10753;52.304;20.990;2022-08-21T03:19:23;9.75;;;7.25;;
21190;SDS011;10753;52.304;20.990;2022-08-21T03:21:48;9.10;;;7.43;;
21190;SDS011;10753;52.304;20.990;2022-08-21T03:24:14;9.30;;;7.10;;
21190;SDS011;10753;52.304;20.990;2022-08-21T03:26:39;12.02;;;7.78;;
21190;SDS011;10753;52.304;20.990;2022-08-21T03:29:05;9.68;;;7.60;;
21190;SDS011;10753;52.304;20.990;2022-08-21T03:31:32;11.52;;;7.68;;
21190;SDS011;10753;52.304;20.990;2022-08-21T03:33:58;8.27;;;7.43;;
21190;SDS011;10753;52.304;20.990;2022-08-21T03:36:24;12.80;;;7.43;;
21190;SDS011;10753;52.304;20.990;2022-08-21T03:38:50;11.18;;;7.72;;
21190;SDS011;10753;52.304;20.990;2022-08-21T03:41:16;9.75;;;7.30;;
21190;SDS011;10753;52.304;20.990;2022-08-21T03:43:41;10.43;;;8.05;;
21190;SDS011;10753;52.304;20.990;2022-08-21T03:46:07;7.70;;;6.90;;
21190;SDS011;10753;52.304;20.990;2022-08-21T03:48:34;9.18;;;7.03;;
21190;SDS011;10753;52.304;20.990;2022-08-21T03:51:01;8.63;;;7.13;;
21190;SDS011;10753;52.304;20.990;2022-08-21T03:53:27;9.15;;;6.93;;
21190;SDS011;10753;52.304;20.990;2022-08-21T03:55:55;8.65;;;6.82;;
21190;SDS011;10753;52.304;20.990;2022-08-21T03:58:24;9.93;;;6.97;;
21190;SDS011;10753;52.304;20.990;2022-08-21T04:00:52;11.73;;;7.72;;
21190;SDS011;10753;52.304;20.990;2022-08-21T04:03:19;8.55;;;6.65;;
21190;SDS011;10753;52.304;20.990;2022-08-21T04:05:45;10.00;;;7.22;;
21190;SDS011;10753;52.304;20.990;2022-08-21T04:08:11;7.35;;;6.55;;
21190;SDS011;10753;52.304;20.990;2022-08-21T04:10:37;8.20;;;6.70;;
21190;SDS011;10753;52.304;20.990;2022-08-21T04:13:05;8.10;;;6.53;;
21190;SDS011;10753;52.304;20.990;2022-08-21T04:15:31;7.35;;;6.60;;
21190;SDS011;10753;52.304;20.990;2022-08-21T04:17:57;10.07;;;7.05;;
21190;SDS011;10753;52.304;20.990;2022-08-21T04:20:23;9.15;;;6.38;;
21190;SDS011;10753;52.304;20.990;2022-08-21T04:22:50;9.57;;;6.03;;
21190;SDS011;10753;52.304;20.990;2022-08-21T04:25:18;7.18;;;6.45;;
21190;SDS011;10753;52.304;20.990;2022-08-21T04:27:45;7.38;;;6.60;;
21190;SDS011;10753;52.304;20.990;2022-08-21T04:30:11;8.50;;;6.68;;
21190;SDS011;10753;52.304;20.990;2022-08-21T04:32:38;7.65;;;6.72;;
21190;SDS011;10753;52.304;20.990;2022-08-21T04:35:09;7.15;;;6.38;;
21190;SDS011;10753;52.304;20.990;2022-08-21T04:37:35;10.02;;;5.93;;
21190;SDS011;10753;52.304;20.990;2022-08-21T04:40:02;7.93;;;6.60;;
21190;SDS011;10753;52.304;20.990;2022-08-21T04:42:28;10.60;;;6.00;;
21190;SDS011;10753;52.304;20.990;2022-08-21T04:44:54;7.78;;;6.18;;
21190;SDS011;10753;52.304;20.990;2022-08-21T04:47:21;7.45;;;6.72;;
21190;SDS011;10753;52.304;20.990;2022-08-21T04:49:47;7.78;;;5.90;;
21190;SDS011;10753;52.304;20.990;2022-08-21T04:52:13;7.35;;;5.93;;
21190;SDS011;10753;52.304;20.990;2022-08-21T04:54:42;7.22;;;5.95;;
21190;SDS011;10753;52.304;20.990;2022-08-21T04:57:10;9.55;;;5.93;;
21190;SDS011;10753;52.304;20.990;2022-08-21T04:59:41;7.20;;;6.20;;
21190;SDS011;10753;52.304;20.990;2022-08-21T05:02:10;8.25;;;5.72;;
21190;SDS011;10753;52.304;20.990;2022-08-21T05:04:39;8.13;;;5.88;;
21190;SDS011;10753;52.304;20.990;2022-08-21T05:07:12;7.25;;;6.20;;
21190;SDS011;10753;52.304;20.990;2022-08-21T05:09:45;6.50;;;5.90;;
21190;SDS011;10753;52.304;20.990;2022-08-21T05:12:11;7.20;;;5.90;;
21190;SDS011;10753;52.304;20.990;2022-08-21T05:14:37;7.45;;;5.55;;
21190;SDS011;10753;52.304;20.990;2022-08-21T05:17:03;8.32;;;5.85;;
21190;SDS011;10753;52.304;20.990;2022-08-21T05:19:29;7.93;;;5.75;;
21190;SDS011;10753;52.304;20.990;2022-08-21T05:21:55;5.88;;;5.38;;
21190;SDS011;10753;52.304;20.990;2022-08-21T05:24:21;7.53;;;5.05;;
21190;SDS011;10753;52.304;20.990;2022-08-21T05:26:46;7.32;;;5.43;;
21190;SDS011;10753;52.304;20.990;2022-08-21T05:29:13;7.63;;;5.22;;
21190;SDS011;10753;52.304;20.990;2022-08-21T05:31:39;6.18;;;5.13;;
21190;SDS011;10753;52.304;20.990;2022-08-21T05:34:05;8.90;;;5.43;;
21190;SDS011;10753;52.304;20.990;2022-08-21T05:36:31;7.95;;;5.45;;
21190;SDS011;10753;52.304;20.990;2022-08-21T05:38:57;7.10;;;5.43;;
21190;SDS011;10753;52.304;20.990;2022-08-21T05:41:22;6.10;;;5.50;;
21190;SDS011;10753;52.304;20.990;2022-08-21T05:43:48;10.73;;;5.57;;
21190;SDS011;10753;52.304;20.990;2022-08-21T05:46:14;6.97;;;5.28;;
21190;SDS011;10753;52.304;20.990;2022-08-21T05:48:40;5.75;;;5.25;;
21190;SDS011;10753;52.304;20.990;2022-08-21T05:51:07;8.45;;;5.75;;
21190;SDS011;10753;52.304;20.990;2022-08-21T05:53:34;7.57;;;5.22;;
21190;SDS011;10753;52.304;20.990;2022-08-21T05:56:01;7.80;;;5.50;;
21190;SDS011;10753;52.304;20.990;2022-08-21T05:58:28;6.15;;;5.30;;
21190;SDS011;10753;52.304;20.990;2022-08-21T06:00:55;7.43;;;5.75;;
21190;SDS011;10753;52.304;20.990;2022-08-21T06:03:22;9.45;;;4.72;;
21190;SDS011;10753;52.304;20.990;2022-08-21T06:05:52;9.32;;;4.60;;
21190;SDS011;10753;52.304;20.990;2022-08-21T06:08:19;7.00;;;5.50;;
21190;SDS011;10753;52.304;20.990;2022-08-21T06:10:45;9.05;;;5.20;;
21190;SDS011;10753;52.304;20.990;2022-08-21T06:13:12;8.02;;;4.85;;
21190;SDS011;10753;52.304;20.990;2022-08-21T06:15:38;6.72;;;4.68;;
21190;SDS011;10753;52.304;20.990;2022-08-21T06:18:04;8.30;;;4.97;;
21190;SDS011;10753;52.304;20.990;2022-08-21T06:20:30;5.85;;;5.15;;
21190;SDS011;10753;52.304;20.990;2022-08-21T06:22:56;7.35;;;4.85;;
21190;SDS011;10753;52.304;20.990;2022-08-21T06:25:22;7.07;;;4.70;;
21190;SDS011;10753;52.304;20.990;2022-08-21T06:27:49;9.38;;;5.63;;
21190;SDS011;10753;52.304;20.990;2022-08-21T06:30:15;5.22;;;4.63;;
21190;SDS011;10753;52.304;20.990;2022-08-21T06:32:41;5.63;;;5.00;;
21190;SDS011;10753;52.304;20.990;2022-08-21T06:35:07;5.50;;;4.72;;
21190;SDS011;10753;52.304;20.990;2022-08-21T06:37:33;7.93;;;4.90;;
21190;SDS011;10753;52.304;20.990;2022-08-21T06:39:58;6.38;;;4.78;;
21190;SDS011;10753;52.304;20.990;2022-08-21T06:42:24;8.88;;;5.57;;
21190;SDS011;10753;52.304;20.990;2022-08-21T06:44:51;5.97;;;4.40;;
21190;SDS011;10753;52.304;20.990;2022-08-21T06:47:17;7.07;;;4.30;;
21190;SDS011;10753;52.304;20.990;2022-08-21T06:49:42;8.80;;;5.50;;
21190;SDS011;10753;52.304;20.990;2022-08-21T06:52:09;5.20;;;4.70;;
21190;SDS011;10753;52.304;20.990;2022-08-21T06:54:36;6.70;;;4.47;;
21190;SDS011;10753;52.304;20.990;2022-08-21T06:57:02;4.93;;;4.43;;
21190;SDS011;10753;52.304;20.990;2022-08-21T06:59:28;7.70;;;4.53;;
21190;SDS011;10753;52.304;20.990;2022-08-21T07:01:54;6.43;;;4.38;;
21190;SDS011;10753;52.304;20.990;2022-08-21T07:04:19;5.45;;;4.35;;
21190;SDS011;10753;52.304;20.990;2022-08-21T07:06:45;5.10;;;4.10;;
21190;SDS011;10753;52.304;20.990;2022-08-21T07:09:11;8.25;;;4.82;;
21190;SDS011;10753;52.304;20.990;2022-08-21T07:11:36;5.78;;;4.60;;
21190;SDS011;10753;52.304;20.990;2022-08-21T07:14:03;8.50;;;4.75;;
21190;SDS011;10753;52.304;20.990;2022-08-21T07:16:29;6.15;;;4.00;;
21190;SDS011;10753;52.304;20.990;2022-08-21T07:18:54;4.65;;;4.10;;
21190;SDS011;10753;52.304;20.990;2022-08-21T07:21:20;6.20;;;5.25;;
21190;SDS011;10753;52.304;20.990;2022-08-21T07:23:49;4.57;;;4.07;;
21190;SDS011;10753;52.304;20.990;2022-08-21T07:26:17;8.30;;;3.85;;
21190;SDS011;10753;52.304;20.990;2022-08-21T07:28:45;6.45;;;4.10;;
21190;SDS011;10753;52.304;20.990;2022-08-21T07:31:12;9.63;;;4.40;;
21190;SDS011;10753;52.304;20.990;2022-08-21T07:33:41;6.28;;;4.00;;
21190;SDS011;10753;52.304;20.990;2022-08-21T07:36:07;6.00;;;4.20;;
21190;SDS011;10753;52.304;20.990;2022-08-21T07:38:33;4.00;;;3.60;;
21190;SDS011;10753;52.304;20.990;2022-08-21T07:41:00;4.93;;;3.88;;
21190;SDS011;10753;52.304;20.990;2022-08-21T07:43:27;5.00;;;3.85;;
21190;SDS011;10753;52.304;20.990;2022-08-21T07:45:54;4.43;;;3.90;;
21190;SDS011;10753;52.304;20.990;2022-08-21T07:48:23;5.80;;;4.05;;
21190;SDS011;10753;52.304;20.990;2022-08-21T07:50:49;4.40;;;4.00;;
21190;SDS011;10753;52.304;20.990;2022-08-21T07:53:16;4.90;;;3.72;;
21190;SDS011;10753;52.304;20.990;2022-08-21T07:55:41;5.95;;;3.90;;
21190;SDS011;10753;52.304;20.990;2022-08-21T07:58:07;7.45;;;4.05;;
21190;SDS011;10753;52.304;20.990;2022-08-21T08:00:33;7.78;;;4.25;;
21190;SDS011;10753;52.304;20.990;2022-08-21T08:02:59;5.93;;;3.88;;
21190;SDS011;10753;52.304;20.990;2022-08-21T08:05:28;4.43;;;3.72;;
21190;SDS011;10753;52.304;20.990;2022-08-21T08:07:55;4.95;;;3.90;;
21190;SDS011;10753;52.304;20.990;2022-08-21T08:10:21;7.20;;;4.07;;
21190;SDS011;10753;52.304;20.990;2022-08-21T08:12:47;4.32;;;3.67;;
21190;SDS011;10753;52.304;20.990;2022-08-21T08:15:14;6.13;;;3.97;;
21190;SDS011;10753;52.304;20.990;2022-08-21T08:17:42;5.70;;;3.90;;
21190;SDS011;10753;52.304;20.990;2022-08-21T08:20:08;5.80;;;3.90;;
21190;SDS011;10753;52.304;20.990;2022-08-21T08:22:35;4.53;;;3.58;;
21190;SDS011;10753;52.304;20.990;2022-08-21T08:25:02;5.97;;;4.15;;
21190;SDS011;10753;52.304;20.990;2022-08-21T08:27:29;6.97;;;3.60;;
21190;SDS011;10753;52.304;20.990;2022-08-21T08:29:55;4.80;;;3.60;;
21190;SDS011;10753;52.304;20.990;2022-08-21T08:32:21;3.78;;;3.47;;
21190;SDS011;10753;52.304;20.990;2022-08-21T08:34:47;4.20;;;3.85;;
21190;SDS011;10753;52.304;20.990;2022-08-21T08:37:14;4.15;;;3.75;;
21190;SDS011;10753;52.304;20.990;2022-08-21T08:39:40;5.13;;;3.58;;
21190;SDS011;10753;52.304;20.990;2022-08-21T08:44:39;7.85;;;3.70;;
21190;SDS011;10753;52.304;20.990;2022-08-21T08:47:06;6.15;;;3.92;;
21190;SDS011;10753;52.304;20.990;2022-08-21T08:49:37;6.35;;;3.40;;
21190;SDS011;10753;52.304;20.990;2022-08-21T08:54:52;3.80;;;3.50;;
21190;SDS011;10753;52.304;20.990;2022-08-21T08:57:30;7.47;;;3.70;;
21190;SDS011;10753;52.304;20.990;2022-08-21T08:59:57;5.70;;;3.58;;
21190;SDS011;10753;52.304;20.990;2022-08-21T09:02:26;4.72;;;3.55;;
21190;SDS011;10753;52.304;20.990;2022-08-21T09:04:54;5.00;;;3.65;;
21190;SDS011;10753;52.304;20.990;2022-08-21T09:07:39;5.00;;;3.38;;
21190;SDS011;10753;52.304;20.990;2022-08-21T09:10:22;5.35;;;3.50;;
21190;SDS011;10753;52.304;20.990;2022-08-21T09:16:13;6.93;;;3.70;;
21190;SDS011;10753;52.304;20.990;2022-08-21T09:21:29;6.95;;;3.40;;
21190;SDS011;10753;52.304;20.990;2022-08-21T09:24:14;5.03;;;3.47;;
21190;SDS011;10753;52.304;20.990;2022-08-21T09:27:09;3.25;;;2.95;;
21190;SDS011;10753;52.304;20.990;2022-08-21T09:29:37;3.88;;;3.15;;
21190;SDS011;10753;52.304;20.990;2022-08-21T09:32:09;3.90;;;3.20;;
21190;SDS011;10753;52.304;20.990;2022-08-21T09:34:43;5.53;;;3.13;;
21190;SDS011;10753;52.304;20.990;2022-08-21T09:37:32;3.67;;;2.90;;
21190;SDS011;10753;52.304;20.990;2022-08-21T09:40:01;7.38;;;2.90;;
21190;SDS011;10753;52.304;20.990;2022-08-21T09:42:40;7.60;;;3.60;;
21190;SDS011;10753;52.304;20.990;2022-08-21T09:45:08;5.47;;;3.42;;
21190;SDS011;10753;52.304;20.990;2022-08-21T09:47:34;3.92;;;3.30;;
21190;SDS011;10753;52.304;20.990;2022-08-21T09:50:10;3.70;;;3.13;;
21190;SDS011;10753;52.304;20.990;2022-08-21T09:52:42;6.03;;;3.90;;
21190;SDS011;10753;52.304;20.990;2022-08-21T09:55:15;4.57;;;4.03;;
21190;SDS011;10753;52.304;20.990;2022-08-21T09:58:04;5.85;;;3.15;;
21190;SDS011;10753;52.304;20.990;2022-08-21T10:00:32;4.18;;;3.08;;
21190;SDS011;10753;52.304;20.990;2022-08-21T10:03:13;5.18;;;3.58;;
21190;SDS011;10753;52.304;20.990;2022-08-21T10:05:50;4.05;;;2.95;;
21190;SDS011;10753;52.304;20.990;2022-08-21T10:08:33;3.88;;;3.47;;
21190;SDS011;10753;52.304;20.990;2022-08-21T10:11:08;4.93;;;3.33;;
21190;SDS011;10753;52.304;20.990;2022-08-21T10:24:35;4.82;;;3.30;;
21190;SDS011;10753;52.304;20.990;2022-08-21T10:30:28;6.50;;;3.65;;
21190;SDS011;10753;52.304;20.990;2022-08-21T10:36:08;3.40;;;3.10;;
21190;SDS011;10753;52.304;20.990;2022-08-21T10:47:12;5.22;;;3.42;;
21190;SDS011;10753;52.304;20.990;2022-08-21T10:55:31;4.93;;;2.97;;
21190;SDS011;10753;52.304;20.990;2022-08-21T10:58:09;4.38;;;2.80;;
21190;SDS011;10753;52.304;20.990;2022-08-21T11:00:42;3.17;;;2.60;;
21190;SDS011;10753;52.304;20.990;2022-08-21T11:08:44;3.00;;;2.50;;
21190;SDS011;10753;52.304;20.990;2022-08-21T11:14:13;3.20;;;2.42;;
21190;SDS011;10753;52.304;20.990;2022-08-21T11:16:44;5.15;;;2.88;;
21190;SDS011;10753;52.304;20.990;2022-08-21T11:27:28;3.75;;;2.70;;
21190;SDS011;10753;52.304;20.990;2022-08-21T11:29:56;3.08;;;2.78;;
21190;SDS011;10753;52.304;20.990;2022-08-21T11:32:32;2.70;;;2.50;;
21190;SDS011;10753;52.304;20.990;2022-08-21T11:35:33;2.50;;;2.35;;
21190;SDS011;10753;52.304;20.990;2022-08-21T11:38:11;4.10;;;2.70;;
21190;SDS011;10753;52.304;20.990;2022-08-21T11:40:42;3.50;;;2.50;;
21190;SDS011;10753;52.304;20.990;2022-08-21T11:43:37;2.75;;;2.47;;
21190;SDS011;10753;52.304;20.990;2022-08-21T11:46:11;2.80;;;2.45;;
21190;SDS011;10753;52.304;20.990;2022-08-21T11:51:37;3.08;;;2.47;;
21190;SDS011;10753;52.304;20.990;2022-08-21T11:54:10;3.58;;;1.98;;
21190;SDS011;10753;52.304;20.990;2022-08-21T11:56:58;4.35;;;2.53;;
21190;SDS011;10753;52.304;20.990;2022-08-21T11:59:51;2.53;;;2.33;;
21190;SDS011;10753;52.304;20.990;2022-08-21T12:02:29;3.03;;;2.58;;
21190;SDS011;10753;52.304;20.990;2022-08-21T12:05:01;2.53;;;2.15;;
21190;SDS011;10753;52.304;20.990;2022-08-21T12:07:47;5.07;;;2.50;;
21190;SDS011;10753;52.304;20.990;2022-08-21T12:10:30;5.22;;;2.28;;
21190;SDS011;10753;52.304;20.990;2022-08-21T12:13:08;3.00;;;2.30;;
21190;SDS011;10753;52.304;20.990;2022-08-21T12:18:34;2.72;;;2.30;;
21190;SDS011;10753;52.304;20.990;2022-08-21T12:26:35;3.88;;;2.20;;
21190;SDS011;10753;52.304;20.990;2022-08-21T12:29:23;2.50;;;2.30;;
21190;SDS011;10753;52.304;20.990;2022-08-21T12:34:23;3.80;;;2.45;;
21190;SDS011;10753;52.304;20.990;2022-08-21T12:37:26;3.55;;;2.35;;
21190;SDS011;10753;52.304;20.990;2022-08-21T12:39:55;4.10;;;2.50;;
21190;SDS011;10753;52.304;20.990;2022-08-21T12:42:28;4.32;;;2.58;;
21190;SDS011;10753;52.304;20.990;2022-08-21T12:44:58;3.58;;;3.28;;
21190;SDS011;10753;52.304;20.990;2022-08-21T12:47:32;3.88;;;2.58;;
21190;SDS011;10753;52.304;20.990;2022-08-21T12:50:03;3.10;;;2.80;;
21190;SDS011;10753;52.304;20.990;2022-08-21T12:52:44;4.40;;;2.47;;
21190;SDS011;10753;52.304;20.990;2022-08-21T12:55:25;10.88;;;3.15;;
21190;SDS011;10753;52.304;20.990;2022-08-21T12:57:53;5.93;;;2.92;;
21190;SDS011;10753;52.304;20.990;2022-08-21T13:00:21;3.60;;;2.90;;
21190;SDS011;10753;52.304;20.990;2022-08-21T13:02:49;3.20;;;2.90;;
21190;SDS011;10753;52.304;20.990;2022-08-21T13:05:27;3.25;;;2.72;;
21190;SDS011;10753;52.304;20.990;2022-08-21T13:07:53;4.95;;;2.85;;
21190;SDS011;10753;52.304;20.990;2022-08-21T13:10:23;6.90;;;2.72;;
21190;SDS011;10753;52.304;20.990;2022-08-21T13:12:56;4.03;;;2.70;;
21190;SDS011;10753;52.304;20.990;2022-08-21T13:15:34;2.80;;;2.50;;
21190;SDS011;10753;52.304;20.990;2022-08-21T13:18:03;3.63;;;2.45;;
21190;SDS011;10753;52.304;20.990;2022-08-21T13:23:01;4.03;;;2.33;;
21190;SDS011;10753;52.304;20.990;2022-08-21T13:25:29;3.03;;;2.70;;
21190;SDS011;10753;52.304;20.990;2022-08-21T13:28:10;3.17;;;2.70;;
21190;SDS011;10753;52.304;20.990;2022-08-21T13:30:41;3.30;;;2.60;;
21190;SDS011;10753;52.304;20.990;2022-08-21T13:33:20;3.15;;;2.20;;
21190;SDS011;10753;52.304;20.990;2022-08-21T13:36:05;4.40;;;2.47;;
21190;SDS011;10753;52.304;20.990;2022-08-21T13:38:35;2.55;;;2.33;;
21190;SDS011;10753;52.304;20.990;2022-08-21T13:41:08;2.70;;;2.33;;
21190;SDS011;10753;52.304;20.990;2022-08-21T13:43:44;3.13;;;2.40;;
21190;SDS011;10753;52.304;20.990;2022-08-21T13:46:14;3.65;;;2.85;;
21190;SDS011;10753;52.304;20.990;2022-08-21T13:48:40;6.95;;;2.53;;
21190;SDS011;10753;52.304;20.990;2022-08-21T13:51:07;6.90;;;2.72;;
21190;SDS011;10753;52.304;20.990;2022-08-21T13:53:34;7.20;;;2.70;;
21190;SDS011;10753;52.304;20.990;2022-08-21T13:56:31;3.25;;;2.40;;
21190;SDS011;10753;52.304;20.990;2022-08-21T13:58:59;3.40;;;2.40;;
21190;SDS011;10753;52.304;20.990;2022-08-21T14:03:57;4.97;;;2.72;;
21190;SDS011;10753;52.304;20.990;2022-08-21T14:06:44;3.47;;;2.70;;
21190;SDS011;10753;52.304;20.990;2022-08-21T14:09:12;6.03;;;2.50;;
21190;SDS011;10753;52.304;20.990;2022-08-21T14:11:40;2.90;;;2.70;;
21190;SDS011;10753;52.304;20.990;2022-08-21T14:17:03;2.78;;;2.47;;
21190;SDS011;10753;52.304;20.990;2022-08-21T14:25:05;4.40;;;2.80;;
21190;SDS011;10753;52.304;20.990;2022-08-21T14:27:31;4.47;;;2.78;;
21190;SDS011;10753;52.304;20.990;2022-08-21T14:30:00;4.32;;;2.55;;
21190;SDS011;10753;52.304;20.990;2022-08-21T14:32:36;3.85;;;3.05;;
21190;SDS011;10753;52.304;20.990;2022-08-21T14:35:04;3.03;;;2.38;;
21190;SDS011;10753;52.304;20.990;2022-08-21T14:37:31;5.82;;;3.42;;
21190;SDS011;10753;52.304;20.990;2022-08-21T14:39:56;3.58;;;2.45;;
21190;SDS011;10753;52.304;20.990;2022-08-21T14:42:22;5.53;;;3.42;;
21190;SDS011;10753;52.304;20.990;2022-08-21T14:44:49;4.00;;;2.58;;
21190;SDS011;10753;52.304;20.990;2022-08-21T14:47:15;3.95;;;2.85;;
21190;SDS011;10753;52.304;20.990;2022-08-21T14:49:41;3.45;;;2.30;;
21190;SDS011;10753;52.304;20.990;2022-08-21T14:52:07;3.13;;;2.55;;
21190;SDS011;10753;52.304;20.990;2022-08-21T14:54:33;2.45;;;2.25;;
21190;SDS011;10753;52.304;20.990;2022-08-21T14:57:06;3.50;;;2.38;;
21190;SDS011;10753;52.304;20.990;2022-08-21T14:59:34;5.47;;;2.30;;
21190;SDS011;10753;52.304;20.990;2022-08-21T15:02:01;4.30;;;3.10;;
21190;SDS011;10753;52.304;20.990;2022-08-21T15:04:29;4.43;;;2.75;;
21190;SDS011;10753;52.304;20.990;2022-08-21T15:06:54;2.53;;;2.33;;
21190;SDS011;10753;52.304;20.990;2022-08-21T15:09:20;4.72;;;2.50;;
21190;SDS011;10753;52.304;20.990;2022-08-21T15:11:46;4.38;;;2.97;;
21190;SDS011;10753;52.304;20.990;2022-08-21T15:14:16;2.67;;;2.47;;
21190;SDS011;10753;52.304;20.990;2022-08-21T15:16:45;4.35;;;2.70;;
21190;SDS011;10753;52.304;20.990;2022-08-21T15:19:10;2.63;;;2.42;;
21190;SDS011;10753;52.304;20.990;2022-08-21T15:21:36;4.55;;;2.60;;
21190;SDS011;10753;52.304;20.990;2022-08-21T15:24:02;3.20;;;2.70;;
21190;SDS011;10753;52.304;20.990;2022-08-21T15:26:28;3.03;;;2.58;;
21190;SDS011;10753;52.304;20.990;2022-08-21T15:28:53;4.43;;;2.60;;
21190;SDS011;10753;52.304;20.990;2022-08-21T15:31:19;3.03;;;2.72;;
21190;SDS011;10753;52.304;20.990;2022-08-21T15:33:45;3.05;;;2.55;;
21190;SDS011;10753;52.304;20.990;2022-08-21T15:36:10;4.53;;;2.90;;
21190;SDS011;10753;52.304;20.990;2022-08-21T15:38:36;7.15;;;3.15;;
21190;SDS011;10753;52.304;20.990;2022-08-21T15:41:02;5.93;;;2.75;;
21190;SDS011;10753;52.304;20.990;2022-08-21T15:43:45;4.50;;;2.85;;
21190;SDS011;10753;52.304;20.990;2022-08-21T15:46:13;4.47;;;2.80;;
21190;SDS011;10753;52.304;20.990;2022-08-21T15:48:41;6.22;;;3.13;;
21190;SDS011;10753;52.304;20.990;2022-08-21T15:51:07;4.72;;;3.17;;
21190;SDS011;10753;52.304;20.990;2022-08-21T15:53:36;3.50;;;2.92;;
21190;SDS011;10753;52.304;20.990;2022-08-21T15:56:03;5.38;;;3.28;;
21190;SDS011;10753;52.304;20.990;2022-08-21T15:58:30;4.93;;;3.22;;
21190;SDS011;10753;52.304;20.990;2022-08-21T16:00:59;3.55;;;3.20;;
21190;SDS011;10753;52.304;20.990;2022-08-21T16:03:26;4.50;;;3.10;;
21190;SDS011;10753;52.304;20.990;2022-08-21T16:05:52;6.13;;;3.80;;
21190;SDS011;10753;52.304;20.990;2022-08-21T16:08:20;6.78;;;3.50;;
21190;SDS011;10753;52.304;20.990;2022-08-21T16:10:46;6.70;;;3.72;;